Time;durP1;ratioP1;P1;durP2;ratioP2;P2;SDS_P1;SDS_P2;PMS_P1;PMS_P2;Temp;Humidity;BMP_temperature;BMP_pressure;BME280_temperature;BME280_humidity;BME280_pressure;Samples;Min_cycle;Max_cycle;Signal;HPM_P1;HPM_P2
2022/08/31 00:03:53;;;;;;;;;;;;;;;18.64;58.37;102056.13;5028903;28;20387;-57
2022/08/31 00:06:19;;;;;;;;;;;;;;;18.61;58.70;102051.09;5038967;28;20292;-57
2022/08/31 00:08:44;;;;;;;;;;;;;;;18.58;58.93;102049.63;5036275;28;19920;-57
2022/08/31 00:11:12;;;;;;;;;;;;;;;18.56;58.71;102058.91;5029336;28;19913;-57
2022/08/31 00:13:38;;;;;;;;;;;;;;;18.52;58.86;102050.41;5042454;28;19921;-57
2022/08/31 00:16:03;;;;;;;;;;;;;;;18.49;59.43;102056.16;5026823;28;19996;-57
2022/08/31 00:18:29;;;;;;;;;;;;;;;18.46;59.42;102058.41;5025913;28;20035;-55
2022/08/31 00:20:54;;;;;;;;;;;;;;;18.41;59.88;102055.44;5040724;28;20015;-57
2022/08/31 00:23:20;;;;;;;;;;;;;;;18.38;59.94;102055.84;5037502;28;19913;-57
2022/08/31 00:25:47;;;;;;;;;;;;;;;18.33;59.99;102053.72;5029719;28;19959;-56
2022/08/31 00:28:13;;;;;;;;;;;;;;;18.30;60.07;102059.50;5021237;28;19960;-57
2022/08/31 00:30:39;;;;;;;;;;;;;;;18.28;59.99;102064.25;5036076;28;19966;-57
2022/08/31 00:33:04;;;;;;;;;;;;;;;18.24;60.48;102066.47;5036738;28;19962;-56
2022/08/31 00:35:31;;;;;;;;;;;;;;;18.23;60.27;102063.97;5028269;28;20292;-54
2022/08/31 00:37:56;;;;;;;;;;;;;;;18.19;60.16;102055.44;5033821;28;19961;-58
2022/08/31 00:40:22;;;;;;;;;;;;;;;18.17;59.99;102060.19;5034914;28;19913;-57
2022/08/31 00:42:47;;;;;;;;;;;;;;;18.16;60.60;102058.50;5046945;28;19997;-57
2022/08/31 00:45:13;;;;;;;;;;;;;;;18.14;60.16;102048.97;5030292;28;19916;-57
2022/08/31 00:47:38;;;;;;;;;;;;;;;18.11;60.55;102050.19;5030939;28;19929;-57
2022/08/31 00:50:05;;;;;;;;;;;;;;;18.09;60.45;102048.72;5031440;28;20068;-58
2022/08/31 00:52:33;;;;;;;;;;;;;;;18.05;60.69;102048.28;5036694;28;20286;-56
2022/08/31 00:55:04;;;;;;;;;;;;;;;18.03;61.04;102054.88;5030045;28;19948;-55
2022/08/31 00:57:37;;;;;;;;;;;;;;;17.98;61.62;102049.22;5028708;28;19909;-58
2022/08/31 01:00:04;;;;;;;;;;;;;;;17.93;61.45;102057.88;5035480;28;20012;-56
2022/08/31 01:02:29;;;;;;;;;;;;;;;17.88;61.26;102053.03;5035638;28;19932;-56
2022/08/31 01:04:55;;;;;;;;;;;;;;;17.85;61.45;102048.03;5033948;28;20304;-57
2022/08/31 01:07:21;;;;;;;;;;;;;;;17.77;61.50;102044.63;5041695;28;19943;-57
2022/08/31 01:09:46;;;;;;;;;;;;;;;17.77;61.86;102050.84;5028955;28;19925;-57
2022/08/31 01:12:11;;;;;;;;;;;;;;;17.75;62.08;102046.69;5031662;28;20003;-56
2022/08/31 01:14:37;;;;;;;;;;;;;;;17.70;62.11;102047.25;5030142;28;19928;-57
2022/08/31 01:17:03;;;;;;;;;;;;;;;17.68;61.91;102041.22;5043879;28;20340;-57
2022/08/31 01:19:31;;;;;;;;;;;;;;;17.65;62.39;102044.25;5037716;28;19916;-57
2022/08/31 01:22:21;;;;;;;;;;;;;;;17.61;62.51;102043.78;5029868;28;20284;-57
2022/08/31 01:24:47;;;;;;;;;;;;;;;17.58;62.51;102043.31;5029743;28;19914;-57
2022/08/31 01:27:13;;;;;;;;;;;;;;;17.55;62.80;102041.00;5030049;28;20311;-57
2022/08/31 01:29:39;;;;;;;;;;;;;;;17.52;62.98;102044.09;5041462;28;20343;-57
2022/08/31 01:32:05;;;;;;;;;;;;;;;17.50;63.11;102041.59;5035388;28;19913;-57
2022/08/31 01:34:30;;;;;;;;;;;;;;;17.45;63.45;102046.69;5028430;28;19909;-57
2022/08/31 01:36:55;;;;;;;;;;;;;;;17.41;63.21;102037.34;5031543;28;20352;-56
2022/08/31 01:39:21;;;;;;;;;;;;;;;17.41;63.45;102050.75;5040238;28;20284;-57
2022/08/31 01:41:46;;;;;;;;;;;;;;;17.39;63.59;102049.28;5029243;28;19971;-54
2022/08/31 01:44:12;;;;;;;;;;;;;;;17.36;63.30;102050.50;5030838;28;20381;-57
2022/08/31 01:46:38;;;;;;;;;;;;;;;17.34;63.83;102045.28;5029958;28;20400;-57
2022/08/31 01:49:03;;;;;;;;;;;;;;;17.33;63.90;102050.84;5035843;28;20160;-57
2022/08/31 01:51:28;;;;;;;;;;;;;;;17.31;63.76;102047.50;5040374;28;19913;-57
2022/08/31 01:53:53;;;;;;;;;;;;;;;17.29;63.93;102049.53;5032707;28;19923;-57
2022/08/31 01:56:21;;;;;;;;;;;;;;;17.27;64.10;102048.91;5031931;28;19913;-57
2022/08/31 01:58:46;;;;;;;;;;;;;;;17.24;64.13;102050.09;5028498;28;19913;-57
2022/08/31 02:01:12;;;;;;;;;;;;;;;17.21;64.20;102047.78;5024402;28;19916;-57
2022/08/31 02:03:37;;;;;;;;;;;;;;;17.18;64.16;102048.16;5031541;28;19917;-57
2022/08/31 02:06:09;;;;;;;;;;;;;;;17.17;64.39;102049.19;5035178;28;19909;-56
2022/08/31 02:08:35;;;;;;;;;;;;;;;17.15;64.33;102043.16;5025832;28;19916;-57
2022/08/31 02:11:00;;;;;;;;;;;;;;;17.14;64.61;102048.72;5043228;28;19915;-56
2022/08/31 02:13:26;;;;;;;;;;;;;;;17.12;64.72;102048.91;5039706;28;19999;-57
2022/08/31 02:15:51;;;;;;;;;;;;;;;17.10;64.45;102044.75;5041503;28;19997;-58
2022/08/31 02:18:16;;;;;;;;;;;;;;;17.07;64.92;102045.13;5040192;28;19955;-57
2022/08/31 02:20:41;;;;;;;;;;;;;;;17.06;64.87;102043.41;5037242;28;19917;-56
2022/08/31 02:23:06;;;;;;;;;;;;;;;17.03;64.58;102048.13;5026694;28;20503;-57
2022/08/31 02:25:31;;;;;;;;;;;;;;;17.02;64.88;102042.97;5031305;28;19925;-56
2022/08/31 02:27:57;;;;;;;;;;;;;;;16.98;64.78;102045.19;5039658;28;19921;-57
2022/08/31 02:30:22;;;;;;;;;;;;;;;16.98;65.08;102049.72;5042094;28;20356;-58
2022/08/31 02:32:47;;;;;;;;;;;;;;;16.96;65.08;102041.00;5021037;28;19912;-57
2022/08/31 02:35:12;;;;;;;;;;;;;;;16.94;65.25;102051.09;5042508;28;20265;-57
2022/08/31 02:37:37;;;;;;;;;;;;;;;16.92;65.31;102047.75;5033448;28;19920;-57
2022/08/31 02:40:04;;;;;;;;;;;;;;;16.89;65.17;102053.50;5038992;28;19913;-57
2022/08/31 02:42:30;;;;;;;;;;;;;;;16.86;65.26;102051.19;5039124;28;19913;-57
2022/08/31 02:44:56;;;;;;;;;;;;;;;16.83;65.35;102048.88;5038698;28;19962;-57
2022/08/31 02:47:21;;;;;;;;;;;;;;;16.78;65.36;102049.41;5044450;28;20384;-58
2022/08/31 02:49:46;;;;;;;;;;;;;;;16.73;65.66;102059.84;5037998;28;20015;-57
2022/08/31 02:52:11;;;;;;;;;;;;;;;16.69;65.87;102051.31;5026624;28;20001;-57
2022/08/31 02:54:36;;;;;;;;;;;;;;;16.68;66.00;102051.50;5025440;28;20397;-55
2022/08/31 02:57:01;;;;;;;;;;;;;;;16.66;65.52;102053.53;5025665;28;19920;-56
2022/08/31 02:59:27;;;;;;;;;;;;;;;16.66;65.62;102054.38;5033208;28;20019;-57
2022/08/31 03:01:52;;;;;;;;;;;;;;;16.64;65.84;102056.38;5029337;28;19919;-57
2022/08/31 03:04:18;;;;;;;;;;;;;;;16.62;65.75;102058.41;5038193;28;19909;-56
2022/08/31 03:06:43;;;;;;;;;;;;;;;16.61;65.88;102062.09;5025843;28;19944;-57
2022/08/31 03:09:08;;;;;;;;;;;;;;;16.59;65.62;102053.41;5033379;28;19917;-57
2022/08/31 03:11:33;;;;;;;;;;;;;;;16.57;65.38;102059.97;5031147;28;19913;-56
2022/08/31 03:13:59;;;;;;;;;;;;;;;16.53;65.61;102051.44;5044386;28;19978;-58
2022/08/31 03:16:24;;;;;;;;;;;;;;;16.50;65.56;102050.97;5043577;28;19909;-57
2022/08/31 03:18:50;;;;;;;;;;;;;;;16.48;65.79;102048.47;5034681;28;19909;-57
2022/08/31 03:21:15;;;;;;;;;;;;;;;16.47;65.42;102048.63;5034619;28;19913;-57
2022/08/31 03:23:40;;;;;;;;;;;;;;;16.45;65.77;102050.66;5039194;28;19909;-57
2022/08/31 03:26:06;;;;;;;;;;;;;;;16.42;65.77;102049.16;5045412;28;19912;-57
2022/08/31 03:28:33;;;;;;;;;;;;;;;16.39;65.95;102047.69;5040916;28;19916;-57
2022/08/31 03:30:58;;;;;;;;;;;;;;;16.36;65.71;102050.72;5041933;28;19917;-57
2022/08/31 03:33:23;;;;;;;;;;;;;;;16.34;66.05;102051.91;5030766;28;19920;-56
2022/08/31 03:35:48;;;;;;;;;;;;;;;16.31;66.01;102057.63;5027472;28;20339;-57
2022/08/31 03:38:14;;;;;;;;;;;;;;;16.28;66.10;102050.78;5019881;28;19919;-57
2022/08/31 03:40:40;;;;;;;;;;;;;;;16.27;66.01;102059.84;5025462;28;19913;-57
2022/08/31 03:43:10;;;;;;;;;;;;;;;16.26;65.92;102057.34;5030646;28;19971;-55
2022/08/31 03:45:35;;;;;;;;;;;;;;;16.23;65.94;102063.91;5029991;28;20108;-57
2022/08/31 03:48:04;;;;;;;;;;;;;;;16.20;65.82;102058.91;5036380;28;19913;-56
2022/08/31 03:50:29;;;;;;;;;;;;;;;16.18;65.61;102052.84;5040593;28;19909;-56
2022/08/31 03:52:54;;;;;;;;;;;;;;;16.16;65.89;102049.50;5031877;28;20326;-57
2022/08/31 03:55:19;;;;;;;;;;;;;;;16.13;65.81;102065.94;5036770;28;20347;-57
2022/08/31 03:57:44;;;;;;;;;;;;;;;16.10;65.45;102059.09;5042360;28;20079;-57
2022/08/31 04:00:10;;;;;;;;;;;;;;;16.08;65.44;102060.28;5031006;28;19917;-56
2022/08/31 04:02:36;;;;;;;;;;;;;;;16.05;65.69;102061.47;5036363;28;19952;-56
2022/08/31 04:05:01;;;;;;;;;;;;;;;16.03;65.36;102063.50;5039136;28;20531;-57
2022/08/31 04:07:26;;;;;;;;;;;;;;;16.01;65.67;102062.03;5040377;28;19944;-56
2022/08/31 04:09:51;;;;;;;;;;;;;;;15.99;65.33;102064.88;5027223;28;19920;-57
2022/08/31 04:12:17;;;;;;;;;;;;;;;15.97;65.40;102063.38;5043000;28;20420;-57
2022/08/31 04:14:43;;;;;;;;;;;;;;;15.91;65.25;102059.56;5043809;28;19936;-57
2022/08/31 04:17:09;;;;;;;;;;;;;;;15.93;65.49;102062.91;5046939;28;20284;-57
2022/08/31 04:19:35;;;;;;;;;;;;;;;15.93;65.01;102073.63;5041099;28;19999;-57
2022/08/31 04:22:00;;;;;;;;;;;;;;;15.91;65.30;102070.28;5026651;28;20385;-57
2022/08/31 04:24:25;;;;;;;;;;;;;;;15.89;65.26;102064.25;5031050;28;20003;-57
2022/08/31 04:26:51;;;;;;;;;;;;;;;15.89;64.81;102071.44;5039391;28;20164;-57
2022/08/31 04:29:16;;;;;;;;;;;;;;;15.89;64.91;102066.09;5043183;28;19913;-57
2022/08/31 04:31:42;;;;;;;;;;;;;;;15.90;65.05;102078.47;5043091;28;19916;-57
2022/08/31 04:34:07;;;;;;;;;;;;;;;15.87;65.08;102081.50;5036273;28;19917;-58
2022/08/31 04:36:33;;;;;;;;;;;;;;;15.84;64.74;102071.97;5031122;28;19925;-57
2022/08/31 04:38:59;;;;;;;;;;;;;;;15.83;64.68;102077.50;5031345;28;19961;-57
2022/08/31 04:41:26;;;;;;;;;;;;;;;15.77;64.70;102077.19;5041555;28;19948;-56
2022/08/31 04:43:52;;;;;;;;;;;;;;;15.75;64.71;102076.53;5040919;28;19934;-56
2022/08/31 04:46:19;;;;;;;;;;;;;;;15.72;64.92;102076.91;5042444;28;19924;-57
2022/08/31 04:48:44;;;;;;;;;;;;;;;15.70;64.72;102073.56;5039021;28;19917;-57
2022/08/31 04:51:11;;;;;;;;;;;;;;;15.68;65.09;102075.56;5029382;28;19940;-56
2022/08/31 04:53:36;;;;;;;;;;;;;;;15.65;64.69;102078.59;5039879;28;20369;-54
2022/08/31 04:56:03;;;;;;;;;;;;;;;15.63;64.66;102077.13;5042965;28;19909;-57
2022/08/31 04:58:28;;;;;;;;;;;;;;;15.61;64.72;102076.41;5032401;28;19913;-57
2022/08/31 05:00:54;;;;;;;;;;;;;;;15.59;64.66;102075.75;5030118;28;19913;-57
2022/08/31 05:03:19;;;;;;;;;;;;;;;15.57;64.76;102083.09;5031389;28;19913;-57
2022/08/31 05:05:45;;;;;;;;;;;;;;;15.51;64.37;102076.59;5032732;28;20058;-57
2022/08/31 05:08:11;;;;;;;;;;;;;;;15.45;65.10;102079.97;5043721;28;20009;-58
2022/08/31 05:10:36;;;;;;;;;;;;;;;15.38;64.87;102079.84;5047787;28;19959;-57
2022/08/31 05:13:01;;;;;;;;;;;;;;;15.35;64.97;102079.34;5041050;28;20010;-56
2022/08/31 05:15:26;;;;;;;;;;;;;;;15.33;64.93;102081.38;5034940;28;20066;-57
2022/08/31 05:17:51;;;;;;;;;;;;;;;15.27;64.70;102082.84;5040859;28;19920;-57
2022/08/31 05:20:17;;;;;;;;;;;;;;;15.32;64.60;102085.84;5049646;28;20006;-56
2022/08/31 05:22:42;;;;;;;;;;;;;;;15.31;64.99;102088.69;5046124;28;19956;-56
2022/08/31 05:25:08;;;;;;;;;;;;;;;15.32;64.65;102091.19;5049939;28;19947;-54
2022/08/31 05:27:35;;;;;;;;;;;;;;;15.33;64.81;102094.75;5031398;28;19918;-57
2022/08/31 05:30:00;;;;;;;;;;;;;;;15.34;64.26;102094.56;5030680;28;20372;-56
2022/08/31 05:32:25;;;;;;;;;;;;;;;15.35;64.33;102101.59;5036026;28;20038;-56
2022/08/31 05:34:50;;;;;;;;;;;;;;;15.36;64.51;102099.75;5030544;28;19913;-57
2022/08/31 05:37:16;;;;;;;;;;;;;;;15.37;64.22;102104.94;5034902;28;19912;-56
2022/08/31 05:39:41;;;;;;;;;;;;;;;15.40;64.25;102103.75;5034833;28;19916;-58
2022/08/31 05:42:07;;;;;;;;;;;;;;;15.42;64.37;102101.75;5035347;28;19987;-57
2022/08/31 05:44:33;;;;;;;;;;;;;;;15.46;64.44;102108.41;5031411;28;20129;-57
2022/08/31 05:46:58;;;;;;;;;;;;;;;15.51;64.04;102100.69;5022979;28;20021;-57
2022/08/31 05:49:23;;;;;;;;;;;;;;;15.54;64.22;102105.72;5019763;28;20051;-57
2022/08/31 05:51:48;;;;;;;;;;;;;;;15.57;64.19;102101.84;5021998;28;20035;-57
2022/08/31 05:54:16;;;;;;;;;;;;;;;15.58;64.44;102109.75;5022399;28;20412;-57
2022/08/31 05:56:41;;;;;;;;;;;;;;;15.64;64.45;102116.28;5023571;28;19913;-54
2022/08/31 05:59:06;;;;;;;;;;;;;;;15.67;63.96;102113.25;5022977;28;19928;-56
2022/08/31 06:01:33;;;;;;;;;;;;;;;15.70;63.96;102112.91;5025042;28;20323;-57
2022/08/31 06:03:58;;;;;;;;;;;;;;;15.73;63.77;102116.06;5022916;28;19921;-56
2022/08/31 06:06:24;;;;;;;;;;;;;;;15.78;63.67;102118.22;5028252;28;20300;-57
2022/08/31 06:08:52;;;;;;;;;;;;;;;15.83;63.70;102118.53;5030683;28;19924;-56
2022/08/31 06:11:21;;;;;;;;;;;;;;;15.88;63.04;102121.50;5023549;28;20161;-57
2022/08/31 06:13:47;;;;;;;;;;;;;;;15.92;62.84;102122.03;5024311;28;20388;-55
2022/08/31 06:16:12;;;;;;;;;;;;;;;15.97;62.91;102127.69;5026404;28;19913;-57
2022/08/31 06:18:39;;;;;;;;;;;;;;;16.02;62.35;102130.69;5021940;28;19927;-55
2022/08/31 06:21:09;;;;;;;;;;;;;;;16.04;62.44;102121.44;5023371;28;20304;-55
2022/08/31 06:23:38;;;;;;;;;;;;;;;16.09;61.85;102131.63;5035302;28;19948;-56
2022/08/31 06:26:04;;;;;;;;;;;;;;;16.13;61.82;102124.91;5020929;28;19984;-56
2022/08/31 06:28:31;;;;;;;;;;;;;;;16.14;61.32;102128.44;5021809;28;19917;-56
2022/08/31 06:30:56;;;;;;;;;;;;;;;16.16;61.41;102135.28;5017727;28;20421;-55
2022/08/31 06:33:21;;;;;;;;;;;;;;;16.18;61.08;102127.91;5019035;28;19936;-57
2022/08/31 06:35:47;;;;;;;;;;;;;;;16.22;61.12;102137.28;5020513;28;19921;-55
2022/08/31 06:38:12;;;;;;;;;;;;;;;16.25;61.12;102136.09;5020435;28;19936;-56
2022/08/31 06:40:37;;;;;;;;;;;;;;;16.27;60.49;102134.06;5021642;28;20389;-57
2022/08/31 06:43:03;;;;;;;;;;;;;;;16.28;60.31;102136.56;5026890;28;19948;-58
2022/08/31 06:45:28;;;;;;;;;;;;;;;16.29;60.42;102140.91;5040707;28;19913;-57
2022/08/31 06:47:57;;;;;;;;;;;;;;;16.32;60.17;102145.09;5026853;28;20303;-53
2022/08/31 06:50:22;;;;;;;;;;;;;;;16.34;60.49;102143.06;5027900;28;19956;-57
2022/08/31 06:52:47;;;;;;;;;;;;;;;16.38;59.99;102142.53;5028905;28;19956;-57
2022/08/31 06:55:12;;;;;;;;;;;;;;;16.47;60.10;102148.66;5034240;28;19913;-55
2022/08/31 06:57:38;;;;;;;;;;;;;;;16.54;59.92;102140.78;5029319;28;19967;-55
2022/08/31 07:00:04;;;;;;;;;;;;;;;16.60;59.53;102142.75;5023423;28;19960;-55
2022/08/31 07:02:29;;;;;;;;;;;;;;;16.69;59.68;102147.06;5031319;28;19956;-56
2022/08/31 07:04:55;;;;;;;;;;;;;;;16.79;59.75;102146.84;5022826;28;20120;-53
2022/08/31 07:07:20;;;;;;;;;;;;;;;16.88;58.99;102151.94;5027441;28;19913;-56
2022/08/31 07:09:46;;;;;;;;;;;;;;;16.98;59.25;102149.00;5017898;28;19928;-55
2022/08/31 07:12:11;;;;;;;;;;;;;;;17.08;58.83;102159.50;5017714;28;20397;-56
2022/08/31 07:14:36;;;;;;;;;;;;;;;17.17;59.11;102153.88;5020304;28;20406;-56
2022/08/31 07:17:02;;;;;;;;;;;;;;;17.24;58.90;102154.81;5026405;28;19916;-56
2022/08/31 07:19:27;;;;;;;;;;;;;;;17.30;58.50;102158.63;5018790;28;19920;-55
2022/08/31 07:21:57;;;;;;;;;;;;;;;17.32;57.67;102156.56;5016055;28;19976;-56
2022/08/31 07:24:23;;;;;;;;;;;;;;;17.33;57.97;102158.25;5019650;28;19917;-55
2022/08/31 07:26:52;;;;;;;;;;;;;;;17.33;57.72;102153.72;5025069;28;19917;-56
2022/08/31 07:29:19;;;;;;;;;;;;;;;17.34;57.65;102159.91;5015526;28;20292;-56
2022/08/31 07:31:45;;;;;;;;;;;;;;;17.34;57.86;102154.53;5018395;28;19912;-55
2022/08/31 07:34:12;;;;;;;;;;;;;;;17.36;58.28;102151.72;5022191;28;20226;-55
2022/08/31 07:42:08;;;;;;;;;;;;;;;17.36;57.84;102151.72;5018518;28;20219;-57
2022/08/31 07:42:10;;;;;;;;;;;;;;;17.45;58.09;102154.13;5013918;28;20419;-56
2022/08/31 07:44:35;;;;;;;;;;;;;;;17.49;58.11;102158.09;5018731;28;20099;-55
2022/08/31 07:47:01;;;;;;;;;;;;;;;17.52;57.91;102152.34;5022993;28;20008;-56
2022/08/31 07:49:26;;;;;;;;;;;;;;;17.57;58.01;102159.84;5020591;28;19963;-55
2022/08/31 07:51:51;;;;;;;;;;;;;;;17.61;58.13;102158.47;5019069;28;19920;-56
2022/08/31 07:54:19;;;;;;;;;;;;;;;17.67;58.38;102156.91;5022291;28;19913;-56
2022/08/31 07:56:45;;;;;;;;;;;;;;;17.72;58.25;102160.75;5022850;28;20372;-57
2022/08/31 07:59:11;;;;;;;;;;;;;;;17.79;58.13;102158.97;5023156;28;19913;-56
2022/08/31 08:01:39;;;;;;;;;;;;;;;17.84;58.35;102161.94;5018207;28;20266;-56
2022/08/31 08:04:05;;;;;;;;;;;;;;;17.89;57.80;102162.19;5030165;28;19917;-57
2022/08/31 08:06:30;;;;;;;;;;;;;;;17.92;57.81;102159.13;5031154;28;19916;-56
2022/08/31 08:09:05;;;;;;;;;;;;;;;17.97;57.93;102160.44;5032925;28;20338;-57
2022/08/31 08:11:31;;;;;;;;;;;;;;;18.01;57.82;102164.44;5035701;28;19983;-56
2022/08/31 08:13:56;;;;;;;;;;;;;;;18.05;57.80;102163.03;5028170;28;20381;-56
2022/08/31 08:16:22;;;;;;;;;;;;;;;18.09;58.05;102162.47;5028309;28;19947;-57
2022/08/31 08:18:47;;;;;;;;;;;;;;;18.17;57.89;102166.91;5032515;28;19923;-56
2022/08/31 08:21:12;;;;;;;;;;;;;;;18.23;58.27;102167.00;5018391;28;19913;-55
2022/08/31 08:23:37;;;;;;;;;;;;;;;18.30;58.17;102160.84;5015531;28;19966;-56
2022/08/31 08:26:07;;;;;;;;;;;;;;;18.34;58.00;102162.97;5019199;28;19913;-55
2022/08/31 08:28:33;;;;;;;;;;;;;;;18.40;58.28;102158.69;5022034;28;19921;-56
2022/08/31 08:31:00;;;;;;;;;;;;;;;18.47;58.03;102167.66;5024189;28;19963;-56
2022/08/31 08:33:29;;;;;;;;;;;;;;;18.51;57.59;102171.66;5021155;28;19917;-57
2022/08/31 08:35:55;;;;;;;;;;;;;;;18.53;57.70;102169.63;5020698;28;20348;-56
2022/08/31 08:38:22;;;;;;;;;;;;;;;18.59;57.94;102168.84;5028258;28;19951;-57
2022/08/31 08:40:50;;;;;;;;;;;;;;;18.64;57.68;102179.91;5017921;28;19924;-57
2022/08/31 08:43:16;;;;;;;;;;;;;;;18.69;57.70;102177.47;5020344;28;19913;-55
2022/08/31 08:45:43;;;;;;;;;;;;;;;18.73;57.78;102178.75;5014361;28;19913;-54
2022/08/31 08:48:11;;;;;;;;;;;;;;;18.78;57.72;102170.09;5019736;28;20071;-55
2022/08/31 08:50:38;;;;;;;;;;;;;;;18.82;57.68;102172.22;5014610;28;20024;-57
2022/08/31 08:53:07;;;;;;;;;;;;;;;18.87;57.63;102174.34;5028813;28;19924;-56
2022/08/31 08:55:34;;;;;;;;;;;;;;;18.92;57.67;102171.06;5013557;28;20293;-57
2022/08/31 08:57:59;;;;;;;;;;;;;;;18.99;57.98;102155.78;5020932;28;19956;-55
2022/08/31 09:00:27;;;;;;;;;;;;;;;19.08;57.70;102165.38;5022399;28;20359;-55
2022/08/31 09:03:04;;;;;;;;;;;;;;;19.15;57.71;102164.44;5023550;28;20004;-57
2022/08/31 09:05:34;;;;;;;;;;;;;;;19.23;57.65;102162.63;5035377;28;19966;-56
2022/08/31 09:08:24;;;;;;;;;;;;;;;19.29;57.16;102162.66;5036998;28;20164;-54
2022/08/31 09:11:07;;;;;;;;;;;;;;;19.29;56.79;102159.97;5032282;28;19917;-53
2022/08/31 09:13:43;;;;;;;;;;;;;;;19.38;57.13;102166.06;5038461;28;19962;-57
2022/08/31 09:16:21;;;;;;;;;;;;;;;19.45;57.15;102165.06;5035680;28;19931;-57
2022/08/31 09:18:51;;;;;;;;;;;;;;;19.55;56.53;102172.84;5023535;28;19991;-56
2022/08/31 09:21:19;;;;;;;;;;;;;;;19.63;57.03;102164.59;5036276;28;19936;-56
2022/08/31 09:23:47;;;;;;;;;;;;;;;19.74;56.42;102171.28;5021843;28;19912;-55
2022/08/31 09:26:19;;;;;;;;;;;;;;;19.88;56.42;102164.94;5035788;28;19921;-53
2022/08/31 09:28:47;;;;;;;;;;;;;;;20.01;55.68;102165.00;5023170;28;20324;-56
2022/08/31 09:31:45;;;;;;;;;;;;;;;20.12;55.62;102169.00;5040589;28;19917;-56
2022/08/31 09:34:24;;;;;;;;;;;;;;;20.29;55.36;102162.22;5003509;28;20296;-55
2022/08/31 09:36:50;;;;;;;;;;;;;;;20.41;55.18;102173.28;5034506;28;19909;-55
2022/08/31 09:39:20;;;;;;;;;;;;;;;20.49;54.87;102165.00;5043292;28;19979;-56
2022/08/31 09:41:47;;;;;;;;;;;;;;;20.58;54.74;102166.47;5028672;28;19917;-56
2022/08/31 09:44:33;;;;;;;;;;;;;;;20.67;54.67;102170.66;5035302;28;20630;-55
2022/08/31 09:47:03;;;;;;;;;;;;;;;20.70;53.97;102167.53;5033983;28;19952;-55
2022/08/31 09:49:35;;;;;;;;;;;;;;;20.63;54.15;102169.41;5036791;28;20007;-54
2022/08/31 09:52:15;;;;;;;;;;;;;;;20.70;54.41;102172.94;5031647;28;19913;-56
2022/08/31 09:57:41;;;;;;;;;;;;;;;21.11;54.65;102163.00;5038572;28;19944;-56
2022/08/31 10:00:27;;;;;;;;;;;;;;;21.17;53.69;102163.00;5030036;28;20075;-55
2022/08/31 10:03:01;;;;;;;;;;;;;;;21.13;53.44;102163.63;5027913;28;19923;-54
2022/08/31 10:05:31;;;;;;;;;;;;;;;21.08;53.66;102169.63;5030272;28;19924;-57
2022/08/31 10:08:03;;;;;;;;;;;;;;;21.14;53.43;102160.72;5035964;28;19913;-57
2022/08/31 10:10:34;;;;;;;;;;;;;;;21.28;53.91;102159.69;5039269;28;19913;-57
2022/08/31 10:13:20;;;;;;;;;;;;;;;21.42;53.56;102163.22;5035508;28;20365;-56
2022/08/31 10:15:58;;;;;;;;;;;;;;;21.55;53.61;102151.53;5023032;28;20292;-55
2022/08/31 10:18:46;;;;;;;;;;;;;;;21.63;53.12;102156.72;5035275;28;19916;-56
2022/08/31 10:21:14;;;;;;;;;;;;;;;21.73;53.13;102157.13;5030946;28;19912;-54
2022/08/31 10:23:40;;;;;;;;;;;;;;;21.79;52.87;102152.75;5036504;28;19958;-55
2022/08/31 10:26:16;;;;;;;;;;;;;;;21.82;52.28;102145.03;5041258;28;19913;-57
2022/08/31 10:28:47;;;;;;;;;;;;;;;21.86;51.88;102150.84;5035135;28;20308;-55
2022/08/31 10:31:22;;;;;;;;;;;;;;;21.94;52.32;102147.88;5025998;28;19909;-55
2022/08/31 10:36:57;;;;;;;;;;;;;;;22.09;52.20;102155.78;5032401;28;19931;-55
2022/08/31 10:39:22;;;;;;;;;;;;;;;22.28;52.50;102143.22;5030196;28;20461;-55
2022/08/31 10:41:49;;;;;;;;;;;;;;;22.47;51.95;102147.66;5030290;28;20011;-56
2022/08/31 10:44:31;;;;;;;;;;;;;;;22.65;50.83;102144.22;5036176;28;19955;-56
2022/08/31 10:46:58;;;;;;;;;;;;;;;22.84;50.46;102143.25;5036897;28;20131;-56
2022/08/31 10:49:24;;;;;;;;;;;;;;;23.02;50.29;102151.47;5039174;28;19912;-53
2022/08/31 10:52:02;;;;;;;;;;;;;;;23.20;49.54;102147.16;5031553;28;20011;-56
2022/08/31 10:54:34;;;;;;;;;;;;;;;23.37;49.39;102142.81;5029314;28;20292;-56
2022/08/31 10:56:59;;;;;;;;;;;;;;;23.51;48.86;102140.81;5031284;28;19933;-56
2022/08/31 10:59:33;;;;;;;;;;;;;;;23.63;48.83;102147.97;5029471;28;19944;-56
2022/08/31 11:02:11;;;;;;;;;;;;;;;23.75;48.44;102138.06;5028609;28;19921;-56
2022/08/31 11:04:41;;;;;;;;;;;;;;;23.84;48.11;102143.16;5041851;28;19916;-54
2022/08/31 11:07:19;;;;;;;;;;;;;;;23.88;47.93;102138.94;5041532;28;20327;-55
2022/08/31 11:09:53;;;;;;;;;;;;;;;23.93;47.97;102142.63;5028525;28;20007;-56
2022/08/31 11:12:21;;;;;;;;;;;;;;;23.99;48.07;102138.16;5028599;28;19944;-55
2022/08/31 11:15:10;;;;;;;;;;;;;;;24.06;48.10;102138.94;5033834;28;19955;-56
2022/08/31 11:17:54;;;;;;;;;;;;;;;24.03;47.85;102132.09;5037397;28;20322;-55
2022/08/31 11:20:26;;;;;;;;;;;;;;;24.07;47.45;102135.16;5043232;28;20004;-55
2022/08/31 11:23:10;;;;;;;;;;;;;;;24.11;47.23;102139.06;5024703;28;19913;-56
2022/08/31 11:25:47;;;;;;;;;;;;;;;24.17;47.21;102134.59;5027164;28;20473;-56
2022/08/31 11:28:38;;;;;;;;;;;;;;;24.18;46.85;102133.53;5042550;28;19912;-54
2022/08/31 11:31:18;;;;;;;;;;;;;;;24.14;46.97;102133.19;5038281;28;20292;-55
2022/08/31 11:33:49;;;;;;;;;;;;;;;24.03;46.73;102131.25;5031620;28;20331;-56
2022/08/31 11:36:36;;;;;;;;;;;;;;;24.00;46.87;102131.72;5047948;28;20460;-57
2022/08/31 11:39:02;;;;;;;;;;;;;;;24.02;47.03;102121.47;5044374;28;19988;-53
2022/08/31 11:41:30;;;;;;;;;;;;;;;24.10;46.81;102115.69;5046549;28;19951;-55
2022/08/31 11:43:56;;;;;;;;;;;;;;;24.17;46.59;102110.19;5040019;28;20326;-54
2022/08/31 11:46:24;;;;;;;;;;;;;;;24.21;46.54;102112.19;5037938;28;20007;-56
2022/08/31 11:48:52;;;;;;;;;;;;;;;24.28;46.82;102112.13;5032721;28;19912;-54
2022/08/31 11:51:31;;;;;;;;;;;;;;;24.36;46.59;102115.38;5043339;28;20011;-54
2022/08/31 11:53:57;;;;;;;;;;;;;;;24.41;46.09;102101.09;5034539;28;20341;-55
2022/08/31 11:56:34;;;;;;;;;;;;;;;24.35;46.22;102108.28;5039955;28;20160;-54
2022/08/31 11:59:18;;;;;;;;;;;;;;;24.30;46.29;102105.44;5027818;28;19921;-53
2022/08/31 12:01:43;;;;;;;;;;;;;;;24.29;46.28;102101.06;5030659;28;19909;-57
2022/08/31 12:04:29;;;;;;;;;;;;;;;24.28;46.10;102101.25;5037131;28;19913;-57
2022/08/31 12:06:58;;;;;;;;;;;;;;;24.30;46.21;102100.00;5032083;28;19917;-56
2022/08/31 12:09:23;;;;;;;;;;;;;;;24.37;46.40;102084.44;5044282;28;19927;-55
2022/08/31 12:12:02;;;;;;;;;;;;;;;24.38;45.84;102093.41;5023155;28;19913;-56
2022/08/31 12:14:37;;;;;;;;;;;;;;;24.30;45.76;102091.84;5030191;28;19912;-56
2022/08/31 12:17:21;;;;;;;;;;;;;;;24.32;45.70;102089.75;5036121;28;19908;-56
2022/08/31 12:20:05;;;;;;;;;;;;;;;24.40;45.70;102086.69;5036154;28;19945;-56
2022/08/31 12:25:21;;;;;;;;;;;;;;;24.41;45.35;102082.06;5039351;28;20396;-57
2022/08/31 12:27:55;;;;;;;;;;;;;;;24.43;45.76;102071.81;5028957;28;20242;-57
2022/08/31 12:30:22;;;;;;;;;;;;;;;24.51;45.28;102074.19;5033902;28;19916;-56
2022/08/31 12:32:57;;;;;;;;;;;;;;;24.59;45.23;102075.75;5042896;28;19920;-53
2022/08/31 12:35:24;;;;;;;;;;;;;;;24.62;45.09;102070.69;5047349;28;19912;-56
2022/08/31 12:38:00;;;;;;;;;;;;;;;24.57;44.69;102078.66;5032461;28;19924;-55
2022/08/31 12:40:26;;;;;;;;;;;;;;;24.44;44.94;102075.34;5033892;28;20440;-56
2022/08/31 12:42:57;;;;;;;;;;;;;;;24.28;45.03;102076.84;5035292;28;19915;-55
2022/08/31 12:45:40;;;;;;;;;;;;;;;24.25;45.36;102072.66;5041434;28;19995;-57
2022/08/31 12:48:10;;;;;;;;;;;;;;;24.29;44.98;102071.19;5047769;28;19912;-56
2022/08/31 12:50:39;;;;;;;;;;;;;;;24.30;45.02;102062.00;5033611;28;19996;-55
2022/08/31 12:53:30;;;;;;;;;;;;;;;24.27;44.85;102067.81;5027929;28;20376;-57
2022/08/31 12:56:18;;;;;;;;;;;;;;;24.39;45.11;102057.03;5034924;28;19912;-54